Time;durP1;ratioP1;P1;durP2;ratioP2;P2;SDS_P1;SDS_P2;PMS_P1;PMS_P2;Temp;Humidity;BMP_temperature;BMP_pressure;BME280_temperature;BME280_humidity;BME280_pressure;Samples;Min_cycle;Max_cycle;Signal;HPM_P1;HPM_P2
2022/02/07 00:03:44;;;;;;;12.85;1.35;;;;;;;1.92;100.00;99609.63;10164584;28;20054;-69
2022/02/07 00:08:42;;;;;;;6.97;1.20;;;;;;;1.83;100.00;99622.97;10145796;28;20582;-68
2022/02/07 00:13:38;;;;;;;6.95;1.08;;;;;;;1.87;100.00;99650.94;10164291;28;20418;-69
2022/02/07 00:18:36;;;;;;;12.13;1.08;;;;;;;1.82;100.00;99658.28;10157141;28;20153;-70
2022/02/07 00:23:33;;;;;;;4.32;0.60;;;;;;;1.77;100.00;99671.81;10159230;28;20034;-69
2022/02/07 00:28:30;;;;;;;9.25;0.85;;;;;;;1.83;100.00;99687.66;10172182;28;20197;-69
2022/02/07 00:33:26;;;;;;;6.55;1.30;;;;;;;1.85;100.00;99685.44;10173947;28;20104;-69
2022/02/07 00:38:24;;;;;;;5.60;1.08;;;;;;;1.94;100.00;99709.09;10178035;28;20520;-69
2022/02/07 00:48:24;;;;;;;10.60;1.42;;;;;;;2.03;100.00;99724.38;10172759;28;20112;-69
2022/02/07 00:53:22;;;;;;;7.00;0.82;;;;;;;2.09;100.00;99744.03;10163748;28;20081;-68
2022/02/07 00:58:19;;;;;;;12.13;1.20;;;;;;;2.07;100.00;99789.34;10175786;28;20609;-68
2022/02/07 01:03:15;;;;;;;9.75;2.17;;;;;;;1.94;100.00;99804.25;10158405;28;20138;-69
2022/02/07 01:08:12;;;;;;;7.35;0.95;;;;;;;1.65;100.00;99804.25;10163089;28;20084;-69
2022/02/07 01:54:45;;;;;;;12.15;1.45;;;;;;;1.63;100.00;99935.75;10155172;28;20479;-69
2022/02/07 01:59:42;;;;;;;11.75;1.65;;;;;;;1.60;100.00;99934.41;10169867;28;20137;-69
2022/02/07 02:04:38;;;;;;;16.10;1.77;;;;;;;1.58;100.00;99950.06;11140698;23;20049;-71
2022/02/07 02:09:36;;;;;;;15.45;1.80;;;;;;;1.58;100.00;99954.63;10107870;28;20074;-71
2022/02/07 02:45:34;;;;;;;10.75;1.30;;;;;;;1.63;100.00;100021.97;10126446;28;20562;-71
2022/02/07 02:50:35;;;;;;;18.35;2.05;;;;;;;1.66;100.00;100027.59;10114062;28;20114;-71
2022/02/07 02:55:34;;;;;;;19.70;1.65;;;;;;;1.68;100.00;100041.63;10122896;28;20665;-71
2022/02/07 03:00:31;;;;;;;16.38;2.58;;;;;;;1.70;100.00;100054.03;10107341;28;20138;-71
2022/02/07 03:05:29;;;;;;;11.02;1.42;;;;;;;1.73;100.00;100069.63;10092411;28;20046;-71
2022/02/07 03:10:40;;;;;;;14.10;1.60;;;;;;;1.73;100.00;100081.22;10132530;28;20488;-71
2022/02/07 03:20:54;;;;;;;9.52;1.35;;;;;;;1.71;100.00;100120.31;10115957;28;20137;-72
2022/02/07 03:25:51;;;;;;;15.55;2.00;;;;;;;1.71;100.00;100153.47;10123457;28;20039;-71
2022/02/07 03:30:47;;;;;;;15.27;2.28;;;;;;;1.74;100.00;100157.50;10114534;28;20067;-71
2022/02/07 03:35:44;;;;;;;11.30;1.05;;;;;;;1.76;100.00;100184.97;10116737;28;20806;-71
2022/02/07 03:40:41;;;;;;;13.55;1.45;;;;;;;1.74;100.00;100195.22;10132842;28;20047;-71
2022/02/07 03:45:37;;;;;;;12.57;2.13;;;;;;;1.73;100.00;100221.38;10124283;28;20055;-71
2022/02/07 03:50:35;;;;;;;12.98;1.38;;;;;;;1.70;100.00;100238.09;10135612;28;20062;-71
2022/02/07 03:55:31;;;;;;;13.82;1.50;;;;;;;1.67;100.00;100276.34;10127597;28;20468;-71
2022/02/07 04:00:28;;;;;;;14.43;1.95;;;;;;;1.70;100.00;100281.22;10133111;28;20077;-72
2022/02/07 04:10:22;;;;;;;21.02;1.38;;;;;;;1.69;100.00;100328.09;10143080;28;20078;-72
2022/02/07 04:15:19;;;;;;;19.23;3.00;;;;;;;1.71;100.00;100352.09;10142910;28;20520;-72
2022/02/07 04:20:17;;;;;;;17.13;1.10;;;;;;;1.74;100.00;100368.56;10161421;28;20046;-72
2022/02/07 04:25:14;;;;;;;16.30;2.63;;;;;;;1.76;100.00;100398.72;10150704;28;20089;-72
2022/02/07 04:30:11;;;;;;;7.45;0.75;;;;;;;1.80;100.00;100415.19;10160634;28;20050;-71
2022/02/07 04:35:08;;;;;;;14.23;1.45;;;;;;;1.81;100.00;100423.03;10146951;28;20097;-71
2022/02/07 04:40:07;;;;;;;10.10;1.90;;;;;;;1.78;100.00;100437.00;10159673;28;20062;-71
2022/02/07 04:45:21;;;;;;;12.57;1.20;;;;;;;1.79;100.00;100449.44;10149821;28;20484;-71
2022/02/07 04:55:43;;;;;;;12.38;0.95;;;;;;;1.79;100.00;100473.69;10120086;28;20043;-71
2022/02/07 05:00:50;;;;;;;6.47;1.10;;;;;;;1.79;100.00;100480.97;10120579;28;20088;-71
2022/02/07 05:15:55;;;;;;;6.13;0.73;;;;;;;1.88;100.00;100523.34;10127795;28;20071;-72
2022/02/07 05:20:51;;;;;;;13.60;2.75;;;;;;;1.88;100.00;100542.22;10142077;28;20039;-72
2022/02/07 05:25:48;;;;;;;9.52;1.17;;;;;;;1.90;100.00;100558.09;10152654;28;20081;-72
2022/02/07 05:30:48;;;;;;;14.82;1.15;;;;;;;1.94;100.00;100569.19;10134816;28;20092;-71
2022/02/07 05:35:44;;;;;;;13.20;0.80;;;;;;;1.98;100.00;100583.75;10120728;28;20109;-71
2022/02/07 05:40:52;;;;;;;11.73;2.08;;;;;;;2.02;100.00;100590.22;10120787;28;20047;-72
2022/02/07 05:45:48;;;;;;;15.77;1.58;;;;;;;2.02;100.00;100611.81;10138141;28;20050;-71
2022/02/07 05:50:45;;;;;;;13.60;1.33;;;;;;;2.11;100.00;100626.41;10137885;28;20050;-72
2022/02/07 05:55:41;;;;;;;14.95;2.22;;;;;;;2.22;100.00;100633.47;10127346;28;20054;-72
2022/02/07 06:00:39;;;;;;;14.88;2.08;;;;;;;2.26;100.00;100648.06;10146590;28;20094;-72
2022/02/07 06:05:36;;;;;;;16.67;1.50;;;;;;;2.31;100.00;100660.75;10136539;28;20046;-72
2022/02/07 06:10:32;;;;;;;21.85;2.20;;;;;;;2.37;100.00;100661.56;10157437;28;20093;-72
2022/02/07 06:15:29;;;;;;;15.85;1.98;;;;;;;2.37;100.00;100680.47;10066752;23;20119;-71
2022/02/07 06:20:26;;;;;;;15.52;2.17;;;;;;;2.44;100.00;100686.47;10001844;29;20076;-71
2022/02/07 06:25:22;;;;;;;14.52;2.67;;;;;;;2.53;100.00;100703.78;10001442;29;20050;-70
2022/02/07 06:30:19;;;;;;;11.18;1.95;;;;;;;2.58;100.00;100733.47;9989707;29;20052;-70
2022/02/07 06:35:17;;;;;;;21.10;2.65;;;;;;;2.64;100.00;100742.38;9993183;29;20553;-70
2022/02/07 06:40:13;;;;;;;14.95;3.35;;;;;;;2.66;100.00;100770.75;10007818;29;20139;-71
2022/02/07 06:45:10;;;;;;;7.75;1.17;;;;;;;2.77;100.00;100779.72;10010294;29;20051;-70
2022/02/07 06:50:07;;;;;;;9.98;2.40;;;;;;;2.84;100.00;100784.88;10009366;29;20103;-71
2022/02/07 06:55:03;;;;;;;10.75;2.22;;;;;;;2.81;100.00;100790.78;9994188;29;20135;-70
2022/02/07 07:00:03;;;;;;;13.20;1.85;;;;;;;2.86;100.00;100809.72;10035590;29;20094;-70
2022/02/07 07:05:07;;;;;;;15.75;2.03;;;;;;;2.85;100.00;100819.69;10004467;29;20052;-71
2022/02/07 07:10:06;;;;;;;20.25;3.17;;;;;;;2.85;100.00;100827.78;10019883;29;20418;-70
2022/02/07 07:15:13;;;;;;;20.90;2.63;;;;;;;2.85;100.00;100835.09;9997899;29;20534;-71
2022/02/07 07:20:11;;;;;;;21.13;2.92;;;;;;;2.88;100.00;100850.78;9997281;29;20076;-71
2022/02/07 07:25:14;;;;;;;30.73;3.35;;;;;;;2.85;100.00;100854.00;10008335;29;20055;-71
2022/02/07 07:30:12;;;;;;;13.77;2.10;;;;;;;2.84;100.00;100861.28;10034849;29;20079;-71
2022/02/07 07:35:09;;;;;;;17.50;2.72;;;;;;;2.86;100.00;100885.34;10012543;29;20467;-71
2022/02/07 07:40:07;;;;;;;18.10;2.92;;;;;;;2.89;100.00;100896.41;9997043;29;20099;-71
2022/02/07 07:45:04;;;;;;;25.55;3.42;;;;;;;2.91;100.00;100925.88;10004938;29;20568;-71
2022/02/07 07:50:12;;;;;;;24.75;4.00;;;;;;;2.95;100.00;100932.41;9993533;29;20586;-71
2022/02/07 08:05:44;;;;;;;20.15;2.97;;;;;;;3.01;100.00;100962.94;10011044;29;20044;-71
2022/02/07 08:10:55;;;;;;;26.52;3.10;;;;;;;3.03;100.00;100961.59;10035243;29;20079;-71
2022/02/07 08:15:51;;;;;;;14.48;2.60;;;;;;;3.05;100.00;100980.25;10008185;29;20071;-71
2022/02/07 08:20:48;;;;;;;30.98;4.22;;;;;;;3.13;100.00;101010.31;10028251;29;20072;-71
2022/02/07 08:25:44;;;;;;;19.48;2.97;;;;;;;3.09;100.00;101017.28;10008057;29;20131;-71
2022/02/07 08:30:57;;;;;;;23.98;3.38;;;;;;;3.14;100.00;101033.53;9997797;29;20498;-71
2022/02/07 08:35:54;;;;;;;19.27;3.47;;;;;;;3.21;100.00;101064.94;9993061;29;20079;-71
2022/02/07 08:40:50;;;;;;;11.85;1.70;;;;;;;3.25;100.00;101066.03;10000571;29;20067;-71
2022/02/07 08:45:47;;;;;;;24.08;2.67;;;;;;;3.30;100.00;101096.63;10013489;29;20039;-71
2022/02/07 08:50:45;;;;;;;23.23;3.30;;;;;;;3.38;100.00;101108.81;10042489;29;20039;-71
2022/02/07 08:55:47;;;;;;;25.05;3.53;;;;;;;3.45;100.00;101101.28;10001417;29;20091;-71
2022/02/07 09:00:51;;;;;;;22.47;3.33;;;;;;;3.58;100.00;101118.97;10004166;29;20072;-71
2022/02/07 09:10:50;;;;;;;22.08;3.67;;;;;;;4.11;100.00;101148.75;9998376;29;20075;-71
2022/02/07 09:16:05;;;;;;;31.00;3.92;;;;;;;4.12;100.00;101177.41;10015192;29;20132;-71
2022/02/07 09:21:03;;;;;;;24.27;3.70;;;;;;;4.21;100.00;101186.66;10002183;29;20044;-71
2022/02/07 09:26:00;;;;;;;22.42;4.75;;;;;;;4.16;100.00;101195.56;10002217;29;20477;-71
2022/02/07 09:30:56;;;;;;;32.80;6.28;;;;;;;4.26;100.00;101205.63;10002376;29;20107;-70
2022/02/07 09:35:57;;;;;;;38.63;4.70;;;;;;;4.31;100.00;101219.19;10004999;29;20075;-71
2022/02/07 09:40:54;;;;;;;29.27;3.47;;;;;;;4.59;100.00;101209.00;10014971;29;20143;-71
2022/02/07 09:45:51;;;;;;;27.45;3.70;;;;;;;4.44;100.00;101236.84;10006801;29;20091;-71
2022/02/07 09:50:49;;;;;;;23.98;3.85;;;;;;;4.52;100.00;101249.06;10028269;29;20657;-71
2022/02/07 09:55:46;;;;;;;22.15;2.78;;;;;;;4.42;100.00;101285.84;9997323;29;20088;-71
2022/02/07 10:00:42;;;;;;;23.98;2.95;;;;;;;4.15;100.00;101301.38;10014561;29;20072;-71
2022/02/07 10:06:08;;;;;;;22.42;3.58;;;;;;;3.93;100.00;101305.00;10014291;29;20073;-71
2022/02/07 10:42:43;;;;;;;19.50;2.50;;;;;;;5.36;100.00;101347.44;9998057;29;20537;-71
2022/02/07 10:47:44;;;;;;;23.13;3.40;;;;;;;5.46;100.00;101374.63;10024636;29;20052;-71
2022/02/07 10:52:53;;;;;;;23.35;4.30;;;;;;;5.69;100.00;101357.84;9990570;29;20193;-71
2022/02/07 10:57:52;;;;;;;23.83;3.03;;;;;;;5.53;100.00;101375.19;9984419;29;20516;-71
2022/02/07 11:03:01;;;;;;;24.83;3.38;;;;;;;5.60;100.00;101381.16;10010640;29;20123;-70
2022/02/07 11:08:17;;;;;;;22.15;4.07;;;;;;;5.86;100.00;101378.47;9998127;29;20499;-71
2022/02/07 11:13:42;;;;;;;18.35;3.50;;;;;;;6.13;100.00;101396.44;9998444;29;20048;-70
2022/02/07 11:18:59;;;;;;;19.67;3.28;;;;;;;6.06;100.00;101415.72;10005621;29;20052;-71
2022/02/07 11:24:20;;;;;;;19.77;3.90;;;;;;;5.98;100.00;101418.97;9994480;29;20679;-70
2022/02/07 11:29:38;;;;;;;22.38;3.20;;;;;;;6.00;100.00;101417.59;9996938;29;20493;-71
2022/02/07 11:34:43;;;;;;;12.23;2.33;;;;;;;5.92;100.00;101410.00;10005583;29;20714;-71
2022/02/07 11:39:40;;;;;;;12.48;2.50;;;;;;;6.06;100.00;101448.31;10007853;29;20636;-71
2022/02/07 11:44:54;;;;;;;12.98;2.78;;;;;;;5.72;100.00;101442.50;9996498;29;20040;-71
2022/02/07 11:49:57;;;;;;;24.55;3.17;;;;;;;5.99;100.00;101437.72;9993996;29;20091;-71
2022/02/07 11:55:05;;;;;;;19.25;3.70;;;;;;;6.29;100.00;101460.56;9993019;29;20147;-71
2022/02/07 12:00:11;;;;;;;16.17;3.03;;;;;;;6.27;100.00;101460.81;9994641;29;20132;-69
2022/02/07 12:05:08;;;;;;;14.93;3.17;;;;;;;6.41;100.00;101488.25;10003937;29;20052;-71
2022/02/07 12:15:13;;;;;;;14.85;3.05;;;;;;;6.59;100.00;101500.50;9994881;29;20052;-69
2022/02/07 12:20:11;;;;;;;;;;;;;;;6.76;100.00;101513.81;10015214;29;20054;-70
2022/02/07 12:25:11;;;;;;;21.63;3.20;;;;;;;6.71;100.00;101532.84;10006903;28;19954;-70
2022/02/07 12:35:08;;;;;;;15.60;2.72;;;;;;;6.90;100.00;101511.34;10001765;29;20238;-70
2022/02/07 12:40:08;;;;;;;13.95;1.92;;;;;;;7.16;100.00;101514.84;10001681;29;20558;-72
2022/02/07 12:45:05;;;;;;;21.35;3.20;;;;;;;7.55;100.00;101522.34;10005715;29;20056;-72
2022/02/07 12:50:07;;;;;;;17.88;2.92;;;;;;;7.56;100.00;101523.97;10003869;29;20048;-70
2022/02/07 12:55:08;;;;;;;19.17;3.10;;;;;;;7.98;100.00;101525.41;10003647;29;20044;-70
2022/02/07 13:00:07;;;;;;;19.63;2.42;;;;;;;7.84;100.00;101543.47;10006201;29;20543;-70
2022/02/07 13:05:09;;;;;;;22.20;2.80;;;;;;;7.15;100.00;101557.53;10013842;29;20052;-70
2022/02/07 13:10:06;;;;;;;11.05;1.83;;;;;;;5.83;100.00;101618.66;10001201;29;20131;-69
2022/02/07 13:15:12;;;;;;;10.38;1.63;;;;;;;5.24;100.00;101592.56;9994913;29;20052;-70
2022/02/07 13:20:10;;;;;;;10.48;2.42;;;;;;;6.23;100.00;101583.84;9999481;29;20131;-70
2022/02/07 13:25:08;;;;;;;10.15;1.23;;;;;;;6.27;100.00;101612.09;9999085;29;20075;-70
2022/02/07 13:30:10;;;;;;;13.45;2.30;;;;;;;6.93;100.00;101586.91;9999956;29;20133;-70
2022/02/07 13:35:10;;;;;;;11.60;2.03;;;;;;;7.08;100.00;101618.75;10005908;29;20051;-70
2022/02/07 13:40:12;;;;;;;11.52;1.77;;;;;;;6.58;100.00;101628.47;10003477;29;20155;-70
2022/02/07 13:45:17;;;;;;;16.13;2.50;;;;;;;6.57;100.00;101624.09;10002438;29;20056;-69
2022/02/07 13:50:17;;;;;;;18.42;3.15;;;;;;;6.89;100.00;101640.19;10002254;29;20078;-69
2022/02/07 13:55:18;;;;;;;16.23;3.65;;;;;;;7.07;100.00;101644.28;9995905;29;20099;-70
2022/02/07 14:00:15;;;;;;;10.98;2.40;;;;;;;6.95;100.00;101661.69;10000482;29;20075;-70
2022/02/07 14:05:13;;;;;;;17.80;2.45;;;;;;;7.08;100.00;101643.22;9997929;29;20052;-70
2022/02/07 14:10:21;;;;;;;20.23;3.08;;;;;;;7.11;100.00;101664.44;10024179;29;20044;-70
2022/02/07 14:15:18;;;;;;;18.60;2.40;;;;;;;7.43;100.00;101671.50;9995518;29;20051;-70
2022/02/07 14:20:19;;;;;;;21.65;3.67;;;;;;;7.74;100.00;101683.16;9997691;29;20482;-70
2022/02/07 14:25:15;;;;;;;20.05;2.67;;;;;;;7.66;100.00;101691.88;9994918;29;20079;-72
2022/02/07 14:30:12;;;;;;;25.08;3.75;;;;;;;7.59;100.00;101681.28;10000581;29;20048;-70
2022/02/07 14:35:09;;;;;;;19.33;3.42;;;;;;;7.71;100.00;101706.31;9998235;29;20056;-70
2022/02/07 14:40:06;;;;;;;19.98;3.38;;;;;;;7.28;100.00;101738.41;9999797;29;20067;-69
2022/02/07 14:45:17;;;;;;;22.45;3.75;;;;;;;7.19;100.00;101709.28;9997889;29;20083;-70
2022/02/07 14:50:18;;;;;;;17.85;3.20;;;;;;;6.77;100.00;101730.16;9998570;29;20082;-70
2022/02/07 14:55:16;;;;;;;16.33;2.70;;;;;;;6.69;100.00;101736.13;10002296;29;20052;-70
2022/02/07 15:00:18;;;;;;;14.18;2.28;;;;;;;6.92;100.00;101748.41;10000589;29;20059;-70
2022/02/07 15:05:16;;;;;;;13.65;2.40;;;;;;;6.59;100.00;101746.94;10005603;29;20074;-71
2022/02/07 15:10:12;;;;;;;19.85;1.95;;;;;;;6.08;100.00;101758.34;10005675;29;20048;-70
2022/02/07 15:15:13;;;;;;;13.70;2.50;;;;;;;5.35;100.00;101774.31;10008992;29;20058;-70
2022/02/07 15:20:13;;;;;;;16.00;2.63;;;;;;;5.32;100.00;101791.91;9998757;29;20123;-70
2022/02/07 15:25:16;;;;;;;11.32;1.77;;;;;;;5.12;100.00;101803.34;9997578;29;20076;-71
2022/02/07 15:30:14;;;;;;;15.52;1.92;;;;;;;4.98;100.00;101807.53;9996686;29;20090;-70
2022/02/07 15:35:11;;;;;;;15.90;2.25;;;;;;;4.75;100.00;101835.72;9993629;29;20087;-70
2022/02/07 15:40:10;;;;;;;17.70;2.28;;;;;;;4.76;100.00;101846.31;10003575;29;20124;-70
2022/02/07 15:45:07;;;;;;;14.63;2.25;;;;;;;4.69;100.00;101863.78;9984349;29;20052;-69
2022/02/07 15:50:11;;;;;;;17.65;2.92;;;;;;;4.54;100.00;101862.53;10000884;29;20052;-68
2022/02/07 15:55:10;;;;;;;11.70;1.85;;;;;;;4.50;100.00;101855.13;10013956;29;20134;-68
2022/02/07 16:00:08;;;;;;;14.88;1.75;;;;;;;4.36;100.00;101860.94;10011037;29;20051;-69
2022/02/07 16:05:05;;;;;;;16.48;2.20;;;;;;;4.40;100.00;101872.88;10005072;29;20131;-68
2022/02/07 16:10:02;;;;;;;17.05;2.03;;;;;;;4.33;100.00;101883.06;10009249;29;20056;-69
2022/02/07 16:15:04;;;;;;;12.63;2.45;;;;;;;4.45;100.00;101872.13;10020559;29;20052;-69
2022/02/07 16:20:00;;;;;;;20.75;3.08;;;;;;;4.42;100.00;101884.28;10009299;29;20048;-70
2022/02/07 16:24:58;;;;;;;23.30;2.90;;;;;;;4.46;100.00;101900.06;9996946;29;20048;-67
2022/02/07 16:29:54;;;;;;;25.60;3.33;;;;;;;4.51;100.00;101894.72;9996159;29;20071;-66
2022/02/07 16:34:51;;;;;;;21.80;2.90;;;;;;;4.47;100.00;101898.97;9996566;29;20533;-66
2022/02/07 16:39:47;;;;;;;30.25;4.45;;;;;;;4.35;100.00;101929.69;9997188;29;20048;-68
2022/02/07 16:44:49;;;;;;;20.98;3.42;;;;;;;4.34;100.00;101940.75;9999336;29;20147;-65
2022/02/07 16:49:47;;;;;;;19.17;3.50;;;;;;;4.39;100.00;101968.75;10012408;29;20055;-64
2022/02/07 16:54:45;;;;;;;28.80;3.85;;;;;;;4.48;100.00;101949.34;10018681;29;20680;-65
2022/02/07 16:59:42;;;;;;;21.65;3.15;;;;;;;4.37;100.00;101968.16;10008780;29;20155;-64
2022/02/07 17:04:42;;;;;;;22.95;3.67;;;;;;;4.41;100.00;101977.44;9999010;29;20127;-71
2022/02/07 17:09:40;;;;;;;26.70;4.10;;;;;;;4.24;100.00;101978.50;10003489;29;20716;-67
2022/02/07 17:14:36;;;;;;;19.50;2.67;;;;;;;4.25;100.00;101989.09;9993359;29;20142;-67
2022/02/07 17:19:35;;;;;;;22.40;4.05;;;;;;;4.30;100.00;101994.59;10018311;29;20126;-67
2022/02/07 17:24:32;;;;;;;25.02;3.08;;;;;;;4.27;100.00;102011.31;10000873;29;20202;-66
2022/02/07 17:29:28;;;;;;;24.05;2.45;;;;;;;4.36;100.00;101996.31;9995187;29;20517;-68
2022/02/07 17:34:25;;;;;;;16.13;2.60;;;;;;;4.48;100.00;101998.09;10006390;29;20147;-66
2022/02/07 17:39:21;;;;;;;16.45;3.00;;;;;;;4.40;100.00;102019.13;10011415;29;20475;-67
2022/02/07 17:44:18;;;;;;;16.55;2.67;;;;;;;4.31;100.00;102004.34;10000723;29;20058;-67
2022/02/07 17:49:15;;;;;;;27.17;3.45;;;;;;;4.22;100.00;102012.06;9999428;29;20540;-67
2022/02/07 17:54:12;;;;;;;23.70;4.35;;;;;;;4.27;100.00;102014.03;10022123;29;20078;-66
2022/02/07 17:59:12;;;;;;;21.42;3.35;;;;;;;4.15;100.00;102022.19;10016394;29;20051;-67
2022/02/07 18:04:08;;;;;;;20.77;3.10;;;;;;;4.09;100.00;102033.19;10001139;29;20645;-67
2022/02/07 18:09:05;;;;;;;23.63;3.10;;;;;;;4.12;100.00;102041.63;9993162;29;20083;-67
2022/02/07 18:14:01;;;;;;;25.33;3.88;;;;;;;4.09;100.00;102044.00;10011980;29;20412;-66
2022/02/07 18:19:04;;;;;;;30.17;4.22;;;;;;;4.12;100.00;102054.34;10003891;29;20518;-66
2022/02/07 18:24:00;;;;;;;33.97;4.22;;;;;;;4.07;100.00;102046.13;9996908;29;20132;-66
2022/02/07 18:28:57;;;;;;;25.52;3.20;;;;;;;4.08;100.00;102045.06;9998931;29;20269;-66
2022/02/07 18:33:54;;;;;;;31.50;3.75;;;;;;;4.04;100.00;102062.84;9998432;29;20550;-67
2022/02/07 18:38:52;;;;;;;26.50;3.38;;;;;;;4.09;100.00;102068.38;10002796;29;20391;-68
2022/02/07 18:43:51;;;;;;;29.52;4.57;;;;;;;4.15;100.00;102080.94;9994306;29;20482;-67
2022/02/07 18:48:48;;;;;;;28.00;3.67;;;;;;;4.08;100.00;102085.66;10011565;29;20050;-66
2022/02/07 18:53:44;;;;;;;29.20;4.03;;;;;;;4.12;100.00;102094.94;10001323;29;20083;-67
2022/02/07 18:58:56;;;;;;;27.38;3.50;;;;;;;4.03;100.00;102099.09;9999402;29;20422;-67
2022/02/07 19:04:00;;;;;;;27.73;4.93;;;;;;;4.13;100.00;102115.53;9998453;29;20072;-67
2022/02/07 19:08:57;;;;;;;30.70;4.53;;;;;;;4.16;100.00;102109.66;9995630;29;20056;-67
2022/02/07 19:13:55;;;;;;;36.15;4.78;;;;;;;4.17;100.00;102105.88;10000917;29;20647;-67
2022/02/07 19:18:56;;;;;;;35.00;5.20;;;;;;;4.12;100.00;102105.78;9998806;29;20570;-68
2022/02/07 19:23:59;;;;;;;35.85;4.55;;;;;;;4.15;100.00;102118.81;9992240;29;20078;-67
2022/02/07 19:29:20;;;;;;;26.23;5.55;;;;;;;4.10;100.00;102113.31;9995177;29;20818;-66
2022/02/07 19:34:24;;;;;;;31.65;3.22;;;;;;;4.19;100.00;102120.00;10007351;29;20530;-68
2022/02/07 19:39:21;;;;;;;21.65;4.07;;;;;;;4.28;100.00;102131.28;10004688;29;20566;-66
2022/02/07 19:44:23;;;;;;;28.38;3.08;;;;;;;4.29;100.00;102141.03;9995332;29;20056;-67
2022/02/07 19:49:19;;;;;;;27.70;3.27;;;;;;;4.32;100.00;102133.25;9995940;29;20054;-67
2022/02/07 19:54:16;;;;;;;22.67;3.40;;;;;;;4.41;100.00;102131.81;10001126;29;20152;-67
2022/02/07 19:59:13;;;;;;;23.30;3.95;;;;;;;4.31;100.00;102139.72;10003842;29;20486;-67
2022/02/07 20:04:09;;;;;;;26.50;3.63;;;;;;;4.35;100.00;102154.44;9974397;29;20052;-67
2022/02/07 20:09:06;;;;;;;31.73;3.88;;;;;;;4.41;100.00;102144.53;9995748;29;20040;-68
2022/02/07 20:14:03;;;;;;;29.65;3.90;;;;;;;4.31;100.00;102145.13;10000725;29;20090;-67
2022/02/07 20:19:00;;;;;;;26.27;3.25;;;;;;;4.32;100.00;102146.78;10001840;29;20126;-67
2022/02/07 20:23:58;;;;;;;29.15;4.57;;;;;;;4.11;100.00;102144.75;10009994;29;20743;-67
2022/02/07 20:28:54;;;;;;;21.75;3.05;;;;;;;4.13;100.00;102137.19;9995177;29;20064;-68
2022/02/07 20:33:52;;;;;;;20.05;3.03;;;;;;;4.11;100.00;102150.16;9993452;29;20777;-68
2022/02/07 20:38:48;;;;;;;33.13;3.38;;;;;;;4.07;100.00;102149.00;10001684;29;20068;-67
2022/02/07 20:43:47;;;;;;;23.98;3.15;;;;;;;4.16;100.00;102148.38;10001997;29;20063;-68
2022/02/07 20:48:48;;;;;;;21.05;3.50;;;;;;;4.11;100.00;102150.16;10001165;29;20139;-67
2022/02/07 20:53:45;;;;;;;21.10;2.85;;;;;;;4.12;100.00;102146.38;10004180;29;20080;-66
2022/02/07 20:58:41;;;;;;;26.30;3.45;;;;;;;4.16;100.00;102158.38;10010233;29;20570;-67
2022/02/07 21:04:05;;;;;;;18.30;2.95;;;;;;;4.26;100.00;102163.19;10001000;29;20586;-67
2022/02/07 21:09:04;;;;;;;19.67;3.42;;;;;;;4.26;100.00;102163.19;10002011;29;20502;-67
2022/02/07 21:14:01;;;;;;;28.48;3.80;;;;;;;4.24;100.00;102171.53;10005062;29;20486;-67
2022/02/07 21:18:57;;;;;;;25.85;3.08;;;;;;;4.23;100.00;102178.03;10007625;29;20048;-67
2022/02/07 21:23:54;;;;;;;31.05;4.68;;;;;;;4.31;100.00;102177.63;9997248;29;20076;-66
2022/02/07 21:28:50;;;;;;;17.65;2.60;;;;;;;4.36;100.00;102175.03;9993470;29;20158;-67
2022/02/07 21:33:47;;;;;;;17.67;2.65;;;;;;;4.38;100.00;102167.47;9991979;29;20102;-67
2022/02/07 21:38:43;;;;;;;22.52;3.20;;;;;;;4.33;100.00;102186.34;9996174;29;20059;-65
2022/02/07 21:43:40;;;;;;;19.38;3.42;;;;;;;4.41;100.00;102190.56;9985799;29;20139;-66
2022/02/07 21:48:38;;;;;;;19.35;3.25;;;;;;;4.42;100.00;102186.78;9993315;29;20127;-66
2022/02/07 21:53:35;;;;;;;22.27;2.67;;;;;;;4.46;100.00;102187.97;10001560;29;20131;-67
2022/02/07 21:58:32;;;;;;;21.00;2.60;;;;;;;4.39;100.00;102184.56;10003675;29;20119;-65
2022/02/07 22:03:29;;;;;;;24.95;3.38;;;;;;;4.50;100.00;102169.31;9996900;29;20079;-64
2022/02/07 22:08:25;;;;;;;20.58;5.38;;;;;;;4.46;100.00;102162.78;10001800;29;20071;-65
2022/02/07 22:13:24;;;;;;;20.42;2.35;;;;;;;4.37;100.00;102160.44;9999742;29;20578;-66
2022/02/07 22:18:21;;;;;;;17.80;2.35;;;;;;;4.35;100.00;102151.72;10002259;29;20076;-67
2022/02/07 22:23:19;;;;;;;13.38;2.85;;;;;;;4.31;100.00;102155.97;9999523;29;20083;-67
2022/02/07 22:28:21;;;;;;;20.65;4.07;;;;;;;4.16;100.00;102150.25;10002041;29;20620;-67
2022/02/07 22:33:24;;;;;;;17.60;2.40;;;;;;;4.27;100.00;102138.56;10000006;29;20467;-67
2022/02/07 22:38:21;;;;;;;16.80;3.25;;;;;;;4.28;100.00;102133.97;10005025;29;20051;-66
2022/02/07 22:43:18;;;;;;;22.60;1.75;;;;;;;4.20;100.00;102148.69;9999709;29;20048;-66
2022/02/07 22:48:15;;;;;;;23.70;2.85;;;;;;;4.22;100.00;102146.56;9997685;29;20557;-67
2022/02/07 22:53:12;;;;;;;20.52;2.53;;;;;;;4.26;100.00;102147.75;9999980;29;20059;-65
2022/02/07 22:58:09;;;;;;;15.45;2.60;;;;;;;4.24;100.00;102162.59;10000196;29;20127;-65
2022/02/07 23:03:06;;;;;;;15.88;1.90;;;;;;;4.17;100.00;102157.31;9994408;29;20147;-66
2022/02/07 23:08:12;;;;;;;14.65;1.55;;;;;;;4.21;100.00;102161.19;10027635;29;20098;-66
2022/02/07 23:33:58;;;;;;;11.40;2.53;;;;;;;4.13;100.00;102129.91;9969262;29;20139;-65
2022/02/07 23:43:56;;;;;;;17.65;2.42;;;;;;;4.08;100.00;102128.97;9990364;29;20091;-66
2022/02/07 23:49:08;;;;;;;12.40;1.90;;;;;;;4.04;100.00;102112.41;9997250;29;20048;-67
2022/02/07 23:54:26;;;;;;;21.45;2.25;;;;;;;4.02;100.00;102114.53;9999556;29;20044;-66
2022/02/07 23:59:43;;;;;;;12.45;1.88;;;;;;;3.99;100.00;102126.66;10003038;29;20498;-66
